Time;durP1;ratioP1;P1;durP2;ratioP2;P2;SDS_P1;SDS_P2;PMS_P1;PMS_P2;Temp;Humidity;BMP_temperature;BMP_pressure;BME280_temperature;BME280_humidity;BME280_pressure;Samples;Min_cycle;Max_cycle;Signal;HPM_P1;HPM_P2
2022/03/03 00:02:23;;;;;;;21.87;14.20;;;;;;;1.63;61.04;101948.16;5054572;28;20890;-82
2022/03/03 00:04:49;;;;;;;23.83;14.77;;;;;;;1.65;61.09;101954.25;5072389;28;20043;-82
2022/03/03 00:07:14;;;;;;;22.40;15.23;;;;;;;1.67;60.88;101954.97;5071287;28;20566;-82
2022/03/03 00:09:40;;;;;;;22.73;14.70;;;;;;;1.63;61.46;101948.16;5069650;28;20024;-82
2022/03/03 00:12:06;;;;;;;22.47;14.83;;;;;;;1.61;60.85;101950.13;5070912;28;20028;-82
2022/03/03 00:14:32;;;;;;;23.40;14.13;;;;;;;1.59;61.06;101947.59;5054416;28;20036;-82
2022/03/03 00:16:57;;;;;;;22.73;14.80;;;;;;;1.62;61.43;101957.16;5066843;28;20074;-82
2022/03/03 00:19:23;;;;;;;23.37;15.00;;;;;;;1.58;61.18;101947.69;5071564;28;20132;-82
2022/03/03 00:21:48;;;;;;;24.07;14.77;;;;;;;1.55;61.24;101951.50;5068673;28;20581;-82
2022/03/03 00:24:14;;;;;;;22.93;14.97;;;;;;;1.56;60.83;101950.50;5070192;28;20423;-82
2022/03/03 00:26:39;;;;;;;21.63;14.13;;;;;;;1.58;60.55;101945.03;5071431;28;20125;-82
2022/03/03 00:29:05;;;;;;;23.03;14.70;;;;;;;1.59;60.87;101944.06;5069469;28;20501;-82
2022/03/03 00:31:30;;;;;;;21.93;14.23;;;;;;;1.58;60.69;101945.03;5065624;28;21491;-82
2022/03/03 00:33:56;;;;;;;23.60;15.20;;;;;;;1.53;60.74;101948.09;5071120;28;20036;-82
2022/03/03 00:36:21;;;;;;;22.80;15.13;;;;;;;1.56;60.50;101950.50;5039073;28;20495;-82
2022/03/03 00:38:48;;;;;;;22.67;14.70;;;;;;;1.58;60.76;101947.69;5051630;28;20134;-82
2022/03/03 00:41:14;;;;;;;24.70;14.93;;;;;;;1.56;60.57;101944.31;5074908;28;20516;-82
2022/03/03 00:43:39;;;;;;;22.13;14.83;;;;;;;1.52;60.53;101936.56;5058954;28;20278;-82
2022/03/03 00:46:04;;;;;;;24.20;15.37;;;;;;;1.48;61.58;101939.59;5073619;28;20032;-82
2022/03/03 00:48:30;;;;;;;23.83;14.97;;;;;;;1.39;62.77;101933.19;5058188;28;20031;-82
2022/03/03 00:50:55;;;;;;;22.47;15.33;;;;;;;1.39;62.29;101938.53;5075838;28;20034;-82
2022/03/03 00:53:23;;;;;;;24.03;15.03;;;;;;;1.32;62.00;101929.34;5072348;28;20050;-82
2022/03/03 00:55:48;;;;;;;21.70;14.47;;;;;;;1.28;62.00;101931.38;5055219;28;20040;-82
2022/03/03 00:58:13;;;;;;;22.73;14.80;;;;;;;1.24;61.95;101923.72;5059698;28;20054;-85
2022/03/03 01:00:39;;;;;;;24.87;15.37;;;;;;;1.21;62.77;101934.66;5059519;28;20043;-85
2022/03/03 01:03:04;;;;;;;25.90;15.67;;;;;;;1.20;62.17;101939.16;5042577;28;20032;-85
2022/03/03 01:05:29;;;;;;;22.97;15.37;;;;;;;1.13;62.64;101929.94;5043814;28;20059;-85
2022/03/03 01:07:55;;;;;;;22.53;15.20;;;;;;;1.13;62.94;101936.13;5055933;28;20360;-85
2022/03/03 01:10:20;;;;;;;25.80;16.43;;;;;;;1.06;64.19;101929.59;5072513;28;20795;-85
2022/03/03 01:12:46;;;;;;;25.13;15.90;;;;;;;1.05;63.33;101932.38;5072831;28;20036;-85
2022/03/03 01:15:11;;;;;;;24.20;15.57;;;;;;;1.04;62.99;101928.88;5091967;28;20115;-85
2022/03/03 01:17:37;;;;;;;23.80;14.97;;;;;;;1.00;62.81;101927.41;5073006;28;20040;-85
2022/03/03 01:20:07;;;;;;;23.03;15.03;;;;;;;1.01;62.87;101921.13;5074910;28;20875;-85
2022/03/03 01:22:32;;;;;;;23.40;15.63;;;;;;;0.98;63.69;101924.00;5073223;28;20024;-85
2022/03/03 01:24:58;;;;;;;24.87;15.67;;;;;;;0.98;62.73;101921.34;5074949;28;20323;-85
2022/03/03 01:27:24;;;;;;;25.23;15.27;;;;;;;0.97;62.90;101931.16;5055968;28;20031;-85
2022/03/03 01:29:50;;;;;;;24.60;15.20;;;;;;;0.95;62.95;101914.44;5059306;28;20027;-82
2022/03/03 01:32:15;;;;;;;23.73;15.70;;;;;;;0.95;62.61;101908.25;5074775;28;20024;-82
2022/03/03 01:34:41;;;;;;;23.13;14.93;;;;;;;0.98;62.79;101906.19;5070724;28;20383;-82
2022/03/03 01:37:07;;;;;;;23.27;15.30;;;;;;;0.96;62.83;101908.13;5073300;28;20407;-82
2022/03/03 01:39:32;;;;;;;22.40;15.27;;;;;;;0.97;63.11;101903.66;5059100;28;20656;-82
2022/03/03 01:41:58;;;;;;;23.80;14.87;;;;;;;0.96;62.85;101899.28;5074984;28;20040;-82
2022/03/03 01:44:23;;;;;;;24.13;15.57;;;;;;;0.95;62.87;101894.91;5073143;28;20047;-85
2022/03/03 01:46:53;;;;;;;23.87;15.43;;;;;;;0.88;62.74;101893.69;5073341;28;20032;-85
2022/03/03 01:49:20;;;;;;;23.67;15.77;;;;;;;0.87;62.83;101889.31;5070418;28;20028;-85
2022/03/03 01:51:45;;;;;;;23.40;15.50;;;;;;;0.80;63.45;101888.97;5074285;28;20285;-85
2022/03/03 01:54:12;;;;;;;23.93;15.50;;;;;;;0.76;63.49;101885.72;5073166;28;20035;-85
2022/03/03 01:56:39;;;;;;;25.07;15.07;;;;;;;0.74;63.26;101892.13;5058657;28;20036;-84
2022/03/03 01:59:05;;;;;;;23.87;15.77;;;;;;;0.69;64.54;101887.16;5074204;28;20389;-85
2022/03/03 02:01:31;;;;;;;24.07;15.87;;;;;;;0.67;65.35;101886.44;5074223;28;20370;-85
2022/03/03 02:03:57;;;;;;;24.40;16.10;;;;;;;0.64;64.81;101878.66;5071506;28;20468;-85
2022/03/03 02:06:24;;;;;;;24.47;16.10;;;;;;;0.57;64.95;101882.78;5074574;28;20328;-81
2022/03/03 02:08:49;;;;;;;23.03;15.33;;;;;;;0.49;65.90;101878.03;5089082;28;20439;-82
2022/03/03 02:11:15;;;;;;;26.03;16.37;;;;;;;0.43;65.63;101876.72;5071756;28;20298;-82
2022/03/03 02:13:41;;;;;;;27.57;16.40;;;;;;;0.40;65.56;101876.97;5071290;28;20047;-82
2022/03/03 02:16:08;;;;;;;23.77;15.30;;;;;;;0.40;65.80;101871.63;5057394;28;20669;-82
2022/03/03 02:18:39;;;;;;;24.23;16.30;;;;;;;0.32;66.88;101866.88;5070167;28;20322;-82
2022/03/03 02:21:05;;;;;;;24.97;15.97;;;;;;;0.15;66.69;101854.88;5070389;28;20296;-82
2022/03/03 02:23:30;;;;;;;24.60;16.50;;;;;;;0.23;66.71;101866.75;5071430;28;20287;-82
2022/03/03 02:25:56;;;;;;;24.50;16.43;;;;;;;0.17;66.60;101870.75;5070858;28;20680;-82
2022/03/03 02:28:21;;;;;;;25.27;16.23;;;;;;;0.12;66.75;101865.78;5071311;28;20162;-82
2022/03/03 02:30:47;;;;;;;25.83;16.67;;;;;;;0.10;66.62;101862.38;5052298;28;20068;-82
2022/03/03 02:33:12;;;;;;;25.90;16.40;;;;;;;0.09;67.63;101862.50;5040510;28;20058;-82
2022/03/03 02:35:37;;;;;;;25.27;16.10;;;;;;;0.08;66.74;101864.31;5057717;28;20107;-82
2022/03/03 02:38:04;;;;;;;26.13;16.50;;;;;;;0.08;66.41;101864.31;5073103;28;20098;-82
2022/03/03 02:40:29;;;;;;;24.87;16.30;;;;;;;0.08;66.00;101866.13;5070660;28;20024;-82
2022/03/03 02:42:55;;;;;;;24.27;15.80;;;;;;;0.07;65.91;101857.28;5071436;28;21745;-82
2022/03/03 02:45:22;;;;;;;24.77;16.13;;;;;;;0.07;65.80;101857.28;5073376;28;20069;-82
2022/03/03 02:47:49;;;;;;;26.47;16.47;;;;;;;0.05;65.96;101856.53;5070654;28;20358;-82
2022/03/03 02:50:17;;;;;;;24.77;16.20;;;;;;;0.03;65.77;101847.84;5072769;28;20584;-82
2022/03/03 02:52:42;;;;;;;25.10;16.30;;;;;;;0.05;65.75;101853.88;5072671;28;20321;-82
2022/03/03 02:55:09;;;;;;;26.10;17.17;;;;;;;0.07;65.95;101857.28;5071050;28;20345;-82
2022/03/03 03:00:18;;;;;;;27.63;16.47;;;;;;;0.06;66.53;101860.91;5070300;28;20297;-82
2022/03/03 03:02:44;;;;;;;27.67;17.23;;;;;;;0.02;66.13;101851.47;5072418;28;20286;-85
2022/03/03 03:05:10;;;;;;;25.50;16.67;;;;;;;0.02;66.19;101855.94;5071027;28;20552;-82
2022/03/03 03:07:35;;;;;;;26.27;17.57;;;;;;;-0.05;67.45;101856.41;5073477;28;20094;-82
2022/03/03 03:10:02;;;;;;;25.27;16.50;;;;;;;-0.01;67.53;101855.22;5068493;28;20294;-81
2022/03/03 03:12:27;;;;;;;27.37;17.40;;;;;;;-0.09;68.11;101856.78;5073019;28;20028;-82
2022/03/03 03:14:52;;;;;;;25.20;16.87;;;;;;;-0.15;68.11;101857.22;5039975;28;20780;-82
2022/03/03 03:17:18;;;;;;;24.37;17.27;;;;;;;-0.25;67.95;101847.25;5053163;28;20185;-82
2022/03/03 03:19:43;;;;;;;26.10;16.70;;;;;;;-0.24;67.50;101848.97;5072496;28;21438;-82
2022/03/03 03:22:09;;;;;;;24.90;16.67;;;;;;;-0.26;67.40;101842.06;5069087;28;20040;-82
2022/03/03 03:24:34;;;;;;;26.00;17.13;;;;;;;-0.30;67.24;101836.13;5072894;28;20046;-82
2022/03/03 03:26:59;;;;;;;28.23;17.63;;;;;;;-0.33;67.25;101841.66;5050628;28;20035;-82
2022/03/03 03:29:25;;;;;;;28.67;16.87;;;;;;;-0.31;67.17;101839.75;5055476;28;21373;-82
2022/03/03 03:31:50;;;;;;;25.23;16.70;;;;;;;-0.32;67.25;101840.72;5070907;28;20404;-85
2022/03/03 03:34:15;;;;;;;27.23;17.87;;;;;;;-0.35;67.60;101831.13;5039600;28;20042;-85
2022/03/03 03:36:41;;;;;;;26.67;17.67;;;;;;;-0.37;68.20;101837.53;5070667;28;20515;-85
2022/03/03 03:39:06;;;;;;;27.93;17.63;;;;;;;-0.41;68.52;101838.75;5067594;28;20059;-82
2022/03/03 03:41:32;;;;;;;27.40;17.60;;;;;;;-0.45;69.05;101838.13;5055156;28;20162;-82
2022/03/03 03:43:57;;;;;;;26.80;17.87;;;;;;;-0.53;69.32;101833.38;5052723;28;20034;-82
2022/03/03 03:46:23;;;;;;;27.23;17.47;;;;;;;-0.58;69.48;101830.22;5070504;28;20089;-82
2022/03/03 03:48:48;;;;;;;26.33;17.20;;;;;;;-0.62;69.88;101834.06;5049826;28;20040;-82
2022/03/03 03:51:13;;;;;;;28.13;17.73;;;;;;;-0.64;70.66;101830.69;5072421;28;20042;-82
2022/03/03 03:53:39;;;;;;;25.83;18.10;;;;;;;-0.69;70.17;101830.16;5070108;28;20027;-82
2022/03/03 03:56:05;;;;;;;26.77;17.20;;;;;;;-0.72;70.77;101827.72;5070648;28;20042;-82
2022/03/03 03:58:30;;;;;;;26.83;17.73;;;;;;;-0.82;72.26;101832.88;5071610;28;20078;-82
2022/03/03 04:00:55;;;;;;;26.03;18.33;;;;;;;-0.85;71.63;101839.25;5072264;28;20066;-84
2022/03/03 04:03:21;;;;;;;28.87;18.30;;;;;;;-0.87;71.42;101829.69;5072737;28;20032;-84
2022/03/03 04:05:46;;;;;;;28.10;18.20;;;;;;;-0.90;70.88;101820.16;5068922;28;20036;-85
2022/03/03 04:08:11;;;;;;;25.57;17.10;;;;;;;-0.86;70.57;101821.63;5035061;28;20051;-84
2022/03/03 04:10:37;;;;;;;28.07;18.10;;;;;;;-0.86;70.25;101823.41;5072529;28;20476;-85
2022/03/03 04:13:02;;;;;;;26.07;17.10;;;;;;;-0.85;69.87;101819.81;5087217;28;21001;-84
2022/03/03 04:15:27;;;;;;;27.30;17.40;;;;;;;-0.80;69.69;101817.66;5070926;28;20115;-85
2022/03/03 04:17:53;;;;;;;26.17;16.40;;;;;;;-0.82;69.63;101816.06;5087963;28;20503;-85
2022/03/03 04:20:18;;;;;;;27.70;17.37;;;;;;;-0.86;69.84;101816.31;5053949;28;20036;-84
2022/03/03 04:22:44;;;;;;;25.27;16.77;;;;;;;-0.82;69.25;101810.75;5072101;28;20052;-85
2022/03/03 04:25:10;;;;;;;29.47;18.40;;;;;;;-0.81;69.50;101805.31;5070774;28;20032;-84
2022/03/03 04:27:37;;;;;;;26.73;17.33;;;;;;;-0.85;69.90;101807.34;5072049;28;20028;-84
2022/03/03 04:30:05;;;;;;;26.33;17.10;;;;;;;-0.86;70.59;101812.78;5069795;28;20313;-85
2022/03/03 04:32:31;;;;;;;25.70;17.33;;;;;;;-0.88;69.77;101796.09;5072251;28;21066;-84
2022/03/03 04:34:56;;;;;;;26.43;16.73;;;;;;;-0.90;70.36;101798.88;5052146;28;20302;-85
2022/03/03 04:37:21;;;;;;;28.50;17.90;;;;;;;-0.88;70.33;101802.25;5071801;28;20476;-85
2022/03/03 04:39:47;;;;;;;27.03;17.93;;;;;;;-0.93;69.85;101798.22;5055665;28;20435;-82
2022/03/03 04:42:12;;;;;;;28.83;18.27;;;;;;;-0.96;71.28;101783.34;5067251;28;20040;-82
2022/03/03 04:44:37;;;;;;;30.27;18.63;;;;;;;-0.94;70.77;101794.72;5068358;28;20072;-82
2022/03/03 04:47:03;;;;;;;28.17;17.67;;;;;;;-0.98;70.50;101787.94;5069200;28;20677;-82
2022/03/03 04:49:28;;;;;;;27.13;17.80;;;;;;;-1.02;71.28;101782.00;5071715;28;20040;-85
2022/03/03 04:51:54;;;;;;;28.37;18.43;;;;;;;-1.03;71.56;101782.94;5055568;28;20602;-84
2022/03/03 04:54:21;;;;;;;26.57;17.60;;;;;;;-1.04;71.58;101780.41;5070246;28;20791;-84
2022/03/03 04:56:46;;;;;;;29.83;18.10;;;;;;;-1.08;71.53;101782.44;5066947;28;20486;-84
2022/03/03 04:59:11;;;;;;;26.10;18.10;;;;;;;-1.11;71.19;101785.31;5051110;28;20293;-84
2022/03/03 05:01:37;;;;;;;28.57;18.77;;;;;;;-1.12;71.79;101783.59;5056039;28;20046;-84
2022/03/03 05:04:02;;;;;;;29.43;19.07;;;;;;;-1.14;72.52;101787.34;5069730;28;20122;-84
2022/03/03 05:06:28;;;;;;;27.97;18.57;;;;;;;-1.17;73.16;101798.22;5051605;28;20131;-85
2022/03/03 05:08:53;;;;;;;29.83;18.93;;;;;;;-1.19;72.67;101790.34;5069415;28;20135;-84
2022/03/03 05:11:19;;;;;;;27.97;18.47;;;;;;;-1.23;72.54;101788.88;5072583;28;20032;-84
2022/03/03 05:13:46;;;;;;;27.83;18.13;;;;;;;-1.26;72.34;101783.78;5055471;28;20054;-84
2022/03/03 05:16:11;;;;;;;30.13;19.60;;;;;;;-1.28;73.05;101786.56;5036909;28;20301;-84
2022/03/03 05:18:36;;;;;;;29.53;18.57;;;;;;;-1.29;73.25;101791.97;5050786;28;20297;-84
2022/03/03 05:21:02;;;;;;;28.77;19.07;;;;;;;-1.31;73.50;101800.06;5069430;28;20834;-82
2022/03/03 05:23:28;;;;;;;30.07;19.17;;;;;;;-1.37;73.10;101796.03;5070054;28;20036;-82
2022/03/03 05:25:53;;;;;;;29.23;18.40;;;;;;;-1.38;73.02;101791.66;5069290;28;20120;-82
2022/03/03 05:28:18;;;;;;;29.03;18.67;;;;;;;-1.47;73.59;101786.16;5074496;28;20408;-82
2022/03/03 05:30:44;;;;;;;29.23;18.73;;;;;;;-1.46;73.53;101785.22;5054616;28;20141;-82
2022/03/03 05:33:09;;;;;;;29.23;19.37;;;;;;;-1.54;73.63;101791.94;5069936;28;20044;-81
2022/03/03 05:35:34;;;;;;;28.17;18.43;;;;;;;-1.49;73.13;101790.75;5074729;28;20468;-82
2022/03/03 05:38:00;;;;;;;29.73;19.40;;;;;;;-1.56;73.28;101783.22;5074959;28;20431;-82
2022/03/03 05:40:26;;;;;;;29.10;18.90;;;;;;;-1.49;73.10;101802.22;5072125;28;20170;-82
2022/03/03 05:42:52;;;;;;;27.57;18.50;;;;;;;-1.53;72.86;101796.28;5073476;28;20042;-82
2022/03/03 05:45:17;;;;;;;28.83;18.53;;;;;;;-1.56;72.82;101790.34;5053833;28;20051;-82
2022/03/03 05:47:45;;;;;;;27.50;18.67;;;;;;;-1.58;73.07;101793.13;5072612;28;20305;-82
2022/03/03 05:50:11;;;;;;;30.87;19.30;;;;;;;-1.55;73.12;101794.69;5074160;28;20400;-82
2022/03/03 05:52:36;;;;;;;29.13;18.57;;;;;;;-1.56;73.26;101793.84;5058526;28;20300;-84
2022/03/03 05:55:03;;;;;;;29.43;18.93;;;;;;;-1.57;73.75;101784.16;5071367;28;20762;-84
2022/03/03 05:57:34;;;;;;;29.30;19.70;;;;;;;-1.60;74.23;101781.72;5057548;28;20514;-85
2022/03/03 06:00:12;;;;;;;28.43;18.20;;;;;;;-1.59;74.09;101788.75;5072617;28;20700;-84
2022/03/03 06:02:39;;;;;;;28.97;19.47;;;;;;;-1.64;75.06;101782.91;5074220;28;20300;-84
2022/03/03 06:05:06;;;;;;;30.37;19.83;;;;;;;-1.65;75.56;101791.84;5053469;28;22095;-84
2022/03/03 06:07:37;;;;;;;28.50;18.90;;;;;;;-1.66;75.15;101789.28;5072987;28;20643;-84
2022/03/03 06:10:04;;;;;;;28.93;19.67;;;;;;;-1.72;75.49;101778.13;5074296;28;20674;-84
2022/03/03 06:12:35;;;;;;;29.73;19.97;;;;;;;-1.72;75.70;101793.22;5072906;28;20295;-84
2022/03/03 06:15:04;;;;;;;29.17;18.97;;;;;;;-1.80;75.68;101787.63;5074008;28;20362;-84
2022/03/03 06:17:30;;;;;;;31.57;19.17;;;;;;;-1.83;75.33;101785.19;5074174;28;20302;-84
2022/03/03 06:19:58;;;;;;;31.17;18.57;;;;;;;-1.85;75.62;101787.06;5074466;28;20809;-84
2022/03/03 06:22:24;;;;;;;33.87;23.67;;;;;;;-1.89;75.33;101779.34;5056718;28;20298;-84
2022/03/03 06:24:49;;;;;;;33.00;21.47;;;;;;;-2.00;75.15;101760.63;5057856;28;20343;-84
2022/03/03 06:27:16;;;;;;;31.50;20.77;;;;;;;-1.80;74.68;101796.41;5069693;28;20044;-84
2022/03/03 06:29:41;;;;;;;30.13;20.53;;;;;;;-1.84;75.26;101786.13;5071241;28;20042;-84
2022/03/03 06:32:07;;;;;;;31.73;21.50;;;;;;;-1.78;74.39;101794.53;5073960;28;20286;-84
2022/03/03 06:34:33;;;;;;;30.03;19.37;;;;;;;-1.73;74.02;101794.19;5071625;28;20491;-84
2022/03/03 06:36:58;;;;;;;31.67;20.00;;;;;;;-1.75;74.57;101791.63;5072073;28;20487;-82
2022/03/03 06:39:23;;;;;;;27.47;19.57;;;;;;;-1.74;74.65;101793.34;5053107;28;20039;-82
2022/03/03 06:41:50;;;;;;;30.17;21.07;;;;;;;-1.70;73.87;101805.47;5072641;28;20434;-82
2022/03/03 06:44:15;;;;;;;28.90;20.70;;;;;;;-1.66;73.64;101797.25;5074074;28;20024;-82
2022/03/03 06:46:41;;;;;;;35.87;27.97;;;;;;;-1.62;73.73;101801.41;5059807;28;20322;-81
2022/03/03 06:49:06;;;;;;;37.03;29.70;;;;;;;-1.61;73.26;101801.28;5071719;28;20032;-82
2022/03/03 06:51:43;;;;;;;30.30;21.00;;;;;;;-1.56;73.11;101800.97;5075074;28;20894;-82
2022/03/03 06:54:14;;;;;;;32.50;21.33;;;;;;;-1.46;72.86;101803.81;5067238;28;20902;-81
2022/03/03 06:56:45;;;;;;;51.23;43.43;;;;;;;-1.39;72.71;101813.06;5079706;28;20298;-82
2022/03/03 06:59:18;;;;;;;46.87;33.73;;;;;;;-1.35;72.50;101803.91;5077734;28;20298;-81
2022/03/03 07:01:46;;;;;;;33.87;23.77;;;;;;;-1.25;72.49;101804.94;5077557;28;20328;-82
2022/03/03 07:04:13;;;;;;;36.23;24.83;;;;;;;-1.17;72.08;101812.34;5078645;28;20300;-82
2022/03/03 07:06:39;;;;;;;30.60;21.23;;;;;;;-1.06;71.92;101815.09;5072927;28;20311;-82
2022/03/03 07:09:04;;;;;;;43.67;38.10;;;;;;;-0.90;72.12;101824.59;5070754;28;20298;-81
2022/03/03 07:11:30;;;;;;;32.33;19.80;;;;;;;-0.75;71.69;101817.31;5056632;28;20032;-81
2022/03/03 07:13:58;;;;;;;32.27;22.77;;;;;;;-0.62;70.91;101811.94;5056860;28;20032;-81
2022/03/03 07:16:30;;;;;;;35.47;28.97;;;;;;;-0.48;70.19;101808.22;5073047;28;20296;-81
2022/03/03 07:19:02;;;;;;;33.57;26.03;;;;;;;-0.23;69.68;101813.38;5072308;28;20840;-81
2022/03/03 07:22:03;;;;;;;35.27;24.80;;;;;;;0.03;69.29;101823.84;5070293;28;20297;-81
2022/03/03 07:24:33;;;;;;;33.90;23.67;;;;;;;0.32;67.98;101820.72;5048536;28;20452;-81
2022/03/03 07:27:07;;;;;;;32.90;24.10;;;;;;;0.59;67.50;101827.53;5074126;28;20289;-81
2022/03/03 07:29:34;;;;;;;29.35;20.92;;;;;;;0.84;66.48;101829.91;5074559;28;20285;-81
2022/03/03 07:32:05;;;;;;;31.03;23.70;;;;;;;1.10;66.00;101824.28;5074488;28;20046;-81
2022/03/03 07:34:41;;;;;;;28.10;19.10;;;;;;;1.36;65.14;101829.31;5074676;28;20358;-81
2022/03/03 07:37:11;;;;;;;29.40;19.53;;;;;;;1.64;63.81;101821.63;5089347;28;20282;-84
2022/03/03 07:39:44;;;;;;;29.23;19.70;;;;;;;1.90;62.64;101824.78;5072692;28;20417;-84
2022/03/03 07:42:13;;;;;;;31.03;20.47;;;;;;;2.20;62.03;101828.47;5074769;28;20024;-84
2022/03/03 07:44:38;;;;;;;27.60;19.43;;;;;;;2.45;61.31;101829.00;5077707;28;20031;-84
2022/03/03 07:47:06;;;;;;;27.37;18.70;;;;;;;2.67;60.80;101822.63;5083887;28;20028;-84
2022/03/03 07:49:31;;;;;;;28.07;20.40;;;;;;;2.92;59.22;101823.09;5082026;28;20614;-85
2022/03/03 07:51:57;;;;;;;28.97;19.30;;;;;;;3.14;58.81;101822.00;5076412;28;20033;-85
2022/03/03 07:54:22;;;;;;;27.90;20.27;;;;;;;3.37;58.12;101827.97;5082880;28;20044;-85
2022/03/03 07:56:52;;;;;;;25.33;17.63;;;;;;;3.58;57.31;101835.88;5066151;28;20126;-85
2022/03/03 07:59:18;;;;;;;26.27;17.57;;;;;;;3.79;57.04;101819.63;5069432;28;20027;-85
2022/03/03 08:01:45;;;;;;;29.63;19.20;;;;;;;3.99;56.22;101828.47;5083152;28;20033;-84
2022/03/03 08:04:14;;;;;;;26.93;18.53;;;;;;;4.19;55.16;101828.44;5067316;28;20028;-86
2022/03/03 08:06:40;;;;;;;25.73;17.43;;;;;;;4.36;55.94;101834.88;5083807;28;20043;-85
2022/03/03 08:09:06;;;;;;;25.70;17.43;;;;;;;4.57;55.37;101837.34;5067828;28;20032;-86
2022/03/03 08:11:35;;;;;;;25.80;17.13;;;;;;;4.77;54.71;101843.47;5067288;28;21466;-86
2022/03/03 08:14:01;;;;;;;28.17;21.40;;;;;;;5.01;53.79;101839.38;5073564;28;20032;-85
2022/03/03 08:16:27;;;;;;;26.07;17.90;;;;;;;5.30;54.04;101832.97;5070096;28;20395;-85
2022/03/03 08:18:55;;;;;;;31.50;18.83;;;;;;;5.48;53.67;101835.66;5056617;28;20048;-85
2022/03/03 08:21:20;;;;;;;28.37;18.47;;;;;;;5.85;52.46;101843.53;5074988;28;20063;-75
2022/03/03 08:23:47;;;;;;;25.07;17.13;;;;;;;6.02;51.86;101835.63;5072975;28;20044;-75
2022/03/03 08:26:13;;;;;;;26.07;17.97;;;;;;;6.24;50.01;101836.94;5070732;28;20059;-75
2022/03/03 08:28:40;;;;;;;25.47;17.67;;;;;;;6.31;49.82;101847.91;5072047;28;20129;-75
2022/03/03 08:31:07;;;;;;;25.40;16.70;;;;;;;6.60;49.54;101847.59;5070181;28;20044;-75
2022/03/03 08:33:35;;;;;;;24.10;16.93;;;;;;;6.73;49.58;101839.03;5071495;28;20039;-75
2022/03/03 08:36:02;;;;;;;26.17;18.00;;;;;;;6.95;49.29;101836.75;5069963;28;20109;-75
2022/03/03 08:38:34;;;;;;;26.13;16.90;;;;;;;7.04;47.68;101838.47;5071290;28;20665;-77
2022/03/03 08:41:00;;;;;;;24.53;16.23;;;;;;;7.16;46.60;101839.88;5070599;28;20040;-78
2022/03/03 08:43:28;;;;;;;24.67;16.27;;;;;;;7.19;46.85;101839.53;5071270;28;20032;-78
2022/03/03 08:45:56;;;;;;;26.50;18.77;;;;;;;7.42;47.97;101841.59;5070911;28;20024;-78
2022/03/03 08:48:26;;;;;;;23.23;15.73;;;;;;;7.59;45.98;101839.78;5071261;28;20028;-78
2022/03/03 08:50:51;;;;;;;23.37;16.40;;;;;;;7.51;45.93;101829.81;5069795;28;20027;-75
2022/03/03 08:53:17;;;;;;;22.83;15.60;;;;;;;7.51;44.12;101829.81;5070704;28;20090;-75
2022/03/03 08:55:42;;;;;;;25.27;17.10;;;;;;;7.37;43.39;101825.06;5068032;28;20032;-75
2022/03/03 08:58:09;;;;;;;64.53;46.90;;;;;;;7.56;45.15;101826.59;5070941;28;20085;-75
2022/03/03 09:00:35;;;;;;;26.07;17.77;;;;;;;7.70;44.37;101833.22;5069071;28;20032;-75
2022/03/03 09:03:01;;;;;;;24.00;15.93;;;;;;;7.75;44.18;101822.72;5071104;28;20060;-75
2022/03/03 09:05:27;;;;;;;22.50;16.10;;;;;;;7.84;43.88;101835.22;5074140;28;20043;-75
2022/03/03 09:07:52;;;;;;;25.20;15.27;;;;;;;7.94;43.90;101827.78;5074356;28;20115;-78
2022/03/03 09:10:18;;;;;;;25.57;15.13;;;;;;;8.08;43.00;101831.66;5070844;28;20525;-78
2022/03/03 09:12:43;;;;;;;21.87;14.07;;;;;;;8.00;42.26;101828.13;5073710;28;20438;-75
2022/03/03 09:15:09;;;;;;;22.70;14.80;;;;;;;8.06;42.82;101830.13;5074084;28;20032;-76
2022/03/03 09:17:35;;;;;;;21.50;14.73;;;;;;;8.27;42.92;101832.31;5074318;28;20171;-76
2022/03/03 09:20:06;;;;;;;23.47;15.17;;;;;;;8.41;42.11;101825.34;5074090;28;20053;-78
2022/03/03 09:22:32;;;;;;;23.90;15.47;;;;;;;8.69;43.81;101825.78;5073865;28;20115;-78
2022/03/03 09:24:57;;;;;;;23.13;14.73;;;;;;;8.70;41.65;101829.31;5073624;28;20035;-75
2022/03/03 09:27:23;;;;;;;21.37;14.47;;;;;;;8.93;41.73;101823.97;5074717;28;20048;-76
2022/03/03 09:29:48;;;;;;;21.40;14.43;;;;;;;9.18;41.45;101819.28;5069605;28;20036;-79
2022/03/03 09:32:14;;;;;;;21.47;14.33;;;;;;;9.37;40.58;101819.81;5071594;28;20109;-78
2022/03/03 09:34:40;;;;;;;21.33;14.63;;;;;;;9.45;40.50;101819.75;5074410;28;20522;-78
2022/03/03 09:37:06;;;;;;;21.50;14.30;;;;;;;9.58;38.71;101817.28;5073008;28;20036;-80
2022/03/03 09:39:31;;;;;;;21.17;14.07;;;;;;;9.54;38.99;101805.16;5074297;28;20027;-76
2022/03/03 09:41:57;;;;;;;22.13;14.30;;;;;;;9.67;39.83;101818.06;5072153;28;20027;-80
2022/03/03 09:44:26;;;;;;;21.00;13.97;;;;;;;9.68;39.20;101814.31;5074265;28;20503;-76
2022/03/03 09:46:53;;;;;;;20.20;14.33;;;;;;;9.63;38.15;101816.75;5072620;28;20047;-76
2022/03/03 09:49:19;;;;;;;20.23;13.00;;;;;;;9.51;37.78;101816.34;5073818;28;20539;-82
2022/03/03 09:51:47;;;;;;;21.87;13.77;;;;;;;9.45;38.48;101817.91;5074445;28;20109;-82
2022/03/03 09:54:13;;;;;;;22.07;14.07;;;;;;;9.42;38.58;101812.00;5075190;28;20031;-76
2022/03/03 09:56:39;;;;;;;22.27;13.90;;;;;;;9.46;38.57;101816.03;5074059;28;20458;-76
2022/03/03 09:59:05;;;;;;;22.73;14.70;;;;;;;9.71;39.27;101821.25;5076299;28;20115;-77
2022/03/03 10:01:31;;;;;;;21.53;14.27;;;;;;;10.02;39.28;101815.72;5073814;28;20131;-76
2022/03/03 10:04:16;;;;;;;22.07;14.00;;;;;;;10.43;39.86;101814.47;5075138;28;20040;-77
2022/03/03 10:06:42;;;;;;;21.90;14.23;;;;;;;10.56;37.79;101813.81;5072583;28;20069;-76
2022/03/03 10:09:09;;;;;;;20.60;13.70;;;;;;;10.67;37.69;101812.50;5074067;28;20020;-76
2022/03/03 10:11:59;;;;;;;19.73;13.30;;;;;;;10.92;38.06;101803.03;5073228;28;20383;-78
2022/03/03 10:14:26;;;;;;;20.13;13.60;;;;;;;10.81;36.34;101800.78;5073580;28;20029;-78
2022/03/03 10:16:51;;;;;;;21.77;13.13;;;;;;;10.80;36.23;101805.38;5072687;28;20548;-80
2022/03/03 10:19:17;;;;;;;21.27;13.60;;;;;;;10.94;35.94;101800.94;5073315;28;20052;-81
2022/03/03 10:21:43;;;;;;;19.73;13.20;;;;;;;11.14;36.46;101803.06;5072687;28;20035;-76
2022/03/03 10:24:26;;;;;;;19.20;12.97;;;;;;;11.35;36.28;101798.66;5089874;28;20028;-75
2022/03/03 10:27:06;;;;;;;22.73;15.07;;;;;;;11.57;37.07;101800.34;5072795;28;20085;-75
2022/03/03 10:29:32;;;;;;;20.37;14.77;;;;;;;11.52;34.59;101805.53;5074077;28;20024;-75
2022/03/03 10:31:59;;;;;;;23.43;15.50;;;;;;;11.54;35.87;101800.72;5073803;28;20028;-80
2022/03/03 10:34:30;;;;;;;19.23;13.70;;;;;;;11.72;35.05;101794.84;5073962;28;20085;-79
2022/03/03 10:36:56;;;;;;;21.00;14.53;;;;;;;11.88;35.39;101790.16;5073559;28;20035;-75
2022/03/03 10:39:21;;;;;;;19.57;13.50;;;;;;;11.88;34.11;101795.59;5074298;28;20040;-79
2022/03/03 10:41:47;;;;;;;17.97;12.80;;;;;;;11.79;34.23;101792.16;5069309;28;20028;-79
2022/03/03 10:44:15;;;;;;;18.50;13.20;;;;;;;11.79;33.94;101790.28;5073415;28;20035;-75
2022/03/03 10:47:06;;;;;;;21.00;13.27;;;;;;;11.98;35.29;101796.09;5072579;28;20050;-75
2022/03/03 10:49:32;;;;;;;19.33;13.10;;;;;;;12.17;37.07;101791.84;5072694;28;20052;-80
2022/03/03 10:52:09;;;;;;;20.87;16.73;;;;;;;12.20;35.62;101798.75;5072268;28;20038;-80
2022/03/03 10:54:51;;;;;;;23.17;18.73;;;;;;;12.51;36.04;101792.84;5072662;28;20049;-75
2022/03/03 10:57:32;;;;;;;25.40;20.97;;;;;;;12.78;36.13;101792.97;5072628;28;20621;-75
2022/03/03 10:59:59;;;;;;;25.47;22.67;;;;;;;12.75;32.29;101791.50;5072671;28;20032;-75
2022/03/03 11:02:28;;;;;;;25.20;21.13;;;;;;;12.76;32.73;101792.38;5071921;28;20044;-75
2022/03/03 11:04:57;;;;;;;23.57;19.23;;;;;;;12.78;33.21;101792.97;5072828;28;20197;-81
2022/03/03 11:07:23;;;;;;;19.80;16.00;;;;;;;12.84;32.86;101793.00;5070486;28;20499;-81
2022/03/03 11:09:51;;;;;;;20.40;15.27;;;;;;;12.79;32.07;101786.50;5072367;28;20093;-80
2022/03/03 11:12:19;;;;;;;21.53;17.30;;;;;;;12.89;32.53;101792.41;5072806;28;20570;-75
2022/03/03 11:14:45;;;;;;;19.20;14.37;;;;;;;12.79;30.98;101775.63;5071952;28;20104;-75
2022/03/03 11:17:11;;;;;;;18.70;12.73;;;;;;;12.93;33.84;101771.94;5058398;28;20105;-74